Time;durP1;ratioP1;P1;durP2;ratioP2;P2;SDS_P1;SDS_P2;PMS_P1;PMS_P2;Temp;Humidity;BMP_temperature;BMP_pressure;BME280_temperature;BME280_humidity;BME280_pressure;Samples;Min_cycle;Max_cycle;Signal;HPM_P1;HPM_P2
2023/10/02 00:01:17;;;;;;;14.25;5.38;;;;;;;;;;5002859;28;20568;-79
2023/10/02 00:03:44;;;;;;;16.17;5.60;;;;;;;;;;5008728;28;20052;-79
2023/10/02 00:06:11;;;;;;;14.23;5.43;;;;;;;;;;5000391;28;20044;-79
2023/10/02 00:08:42;;;;;;;12.00;4.85;;;;;;;;;;5002461;28;20034;-79
2023/10/02 00:11:41;;;;;;;13.98;5.30;;;;;;;;;;4996085;28;20022;-79
2023/10/02 00:14:23;;;;;;;13.02;5.20;;;;;;;;;;4995093;28;20423;-79
2023/10/02 00:17:04;;;;;;;16.88;5.13;;;;;;;;;;5006095;28;20044;-79
2023/10/02 00:19:36;;;;;;;14.82;4.95;;;;;;;;;;5005814;28;20475;-79
2023/10/02 00:22:07;;;;;;;16.80;5.80;;;;;;;;;;4998577;28;20045;-79
2023/10/02 00:24:38;;;;;;;18.42;6.53;;;;;;;;;;5003927;28;20056;-79
2023/10/02 00:27:06;;;;;;;15.73;5.45;;;;;;;;;;4998153;28;20142;-79
2023/10/02 00:29:31;;;;;;;15.38;5.55;;;;;;;;;;5004445;28;20034;-78
2023/10/02 00:31:58;;;;;;;16.55;5.90;;;;;;;;;;5005158;28;20041;-79
2023/10/02 00:34:30;;;;;;;16.35;5.47;;;;;;;;;;5005684;28;20069;-79
2023/10/02 00:36:58;;;;;;;14.35;5.78;;;;;;;;;;5005601;28;20061;-79
2023/10/02 00:39:24;;;;;;;18.17;5.57;;;;;;;;;;5013042;28;20522;-79
2023/10/02 00:44:52;;;;;;;;;;;;;;;;;;5021319;28;20044;-79
2023/10/02 00:47:42;;;;;;;14.23;5.03;;;;;;;;;;5020713;28;19909;-79
2023/10/02 00:50:17;;;;;;;13.13;4.90;;;;;;;;;;5018940;28;20080;-79
2023/10/02 00:53:12;;;;;;;16.77;5.97;;;;;;;;;;5006887;28;20793;-79
2023/10/02 00:55:38;;;;;;;10.68;4.90;;;;;;;;;;4999427;28;20069;-79
2023/10/02 00:58:05;;;;;;;15.38;5.35;;;;;;;;;;5004509;28;20080;-79
2023/10/02 01:00:42;;;;;;;15.32;6.00;;;;;;;;;;5006639;28;20037;-79
2023/10/02 01:03:09;;;;;;;14.15;5.18;;;;;;;;;;5001041;28;20053;-79
2023/10/02 01:05:47;;;;;;;20.90;6.15;;;;;;;;;;5015609;28;20515;-78
2023/10/02 01:08:25;;;;;;;15.10;5.38;;;;;;;;;;5016300;28;20044;-79
2023/10/02 01:10:59;;;;;;;17.55;6.00;;;;;;;;;;5009848;28;20034;-79
2023/10/02 01:13:29;;;;;;;14.77;5.45;;;;;;;;;;5005165;28;20056;-79
2023/10/02 01:15:56;;;;;;;13.48;4.88;;;;;;;;;;5005652;28;20584;-79
2023/10/02 01:18:22;;;;;;;31.00;7.38;;;;;;;;;;5000563;28;20037;-79
2023/10/02 01:20:48;;;;;;;18.98;5.85;;;;;;;;;;5000296;28;20092;-79
2023/10/02 01:23:18;;;;;;;19.63;6.00;;;;;;;;;;5003497;28;20038;-79
2023/10/02 01:25:45;;;;;;;17.65;5.28;;;;;;;;;;5004024;28;20049;-79
2023/10/02 01:28:13;;;;;;;16.80;5.35;;;;;;;;;;5004759;28;20048;-79
2023/10/02 01:30:40;;;;;;;16.63;5.45;;;;;;;;;;5003288;28;20101;-79
2023/10/02 01:33:13;;;;;;;18.15;5.53;;;;;;;;;;5009625;28;20075;-79
2023/10/02 01:35:51;;;;;;;18.77;5.47;;;;;;;;;;5022414;28;20552;-79
2023/10/02 01:38:29;;;;;;;18.48;6.35;;;;;;;;;;5003186;28;20038;-79
2023/10/02 01:41:04;;;;;;;15.65;5.47;;;;;;;;;;5022822;28;20563;-79
2023/10/02 01:43:44;;;;;;;15.43;5.57;;;;;;;;;;5006865;28;20049;-79
2023/10/02 01:46:11;;;;;;;15.43;5.57;;;;;;;;;;4997648;28;20041;-79
2023/10/02 01:48:40;;;;;;;16.83;5.35;;;;;;;;;;5002201;28;20074;-79
2023/10/02 01:51:16;;;;;;;17.73;5.90;;;;;;;;;;5002641;28;20041;-79
2023/10/02 01:53:48;;;;;;;15.65;5.43;;;;;;;;;;5003945;28;20036;-79
2023/10/02 01:56:15;;;;;;;15.38;5.38;;;;;;;;;;5004623;28;20040;-79
2023/10/02 01:58:41;;;;;;;17.13;5.05;;;;;;;;;;5003931;28;20074;-79
2023/10/02 02:01:09;;;;;;;17.30;5.45;;;;;;;;;;5004082;28;20057;-79
2023/10/02 02:03:36;;;;;;;14.98;5.43;;;;;;;;;;5003496;28;20034;-79
2023/10/02 02:06:08;;;;;;;18.25;5.82;;;;;;;;;;5002925;28;20045;-79
2023/10/02 02:08:40;;;;;;;13.80;5.82;;;;;;;;;;5001953;28;20030;-79
2023/10/02 02:11:20;;;;;;;18.10;5.85;;;;;;;;;;4997354;28;20037;-79
2023/10/02 02:13:51;;;;;;;16.67;5.88;;;;;;;;;;5003846;28;20038;-79
2023/10/02 02:16:38;;;;;;;15.90;5.78;;;;;;;;;;4997305;28;20042;-79
2023/10/02 02:19:07;;;;;;;19.25;5.63;;;;;;;;;;4997097;28;20125;-79
2023/10/02 02:21:32;;;;;;;13.60;5.82;;;;;;;;;;5004294;28;20038;-79
2023/10/02 02:24:07;;;;;;;16.88;5.82;;;;;;;;;;5003707;28;20486;-79
2023/10/02 02:26:37;;;;;;;16.30;5.25;;;;;;;;;;5005653;28;20033;-79
2023/10/02 02:29:04;;;;;;;18.73;5.95;;;;;;;;;;5013702;28;20250;-79
2023/10/02 02:31:31;;;;;;;16.48;5.82;;;;;;;;;;5010667;28;20053;-79
2023/10/02 02:33:58;;;;;;;17.98;5.75;;;;;;;;;;5014653;28;20556;-79
2023/10/02 02:36:25;;;;;;;16.42;5.90;;;;;;;;;;5001730;28;20041;-79
2023/10/02 02:39:05;;;;;;;15.52;5.40;;;;;;;;;;5003135;28;20030;-79
2023/10/02 02:41:30;;;;;;;16.67;6.05;;;;;;;;;;5003948;28;20645;-79
2023/10/02 02:43:56;;;;;;;14.98;5.93;;;;;;;;;;5022030;28;20017;-79
2023/10/02 02:46:22;;;;;;;17.38;5.47;;;;;;;;;;5007621;28;20101;-79
2023/10/02 02:48:49;;;;;;;15.85;5.55;;;;;;;;;;5002801;28;20045;-79
2023/10/02 02:51:15;;;;;;;11.40;4.57;;;;;;;;;;5001422;28;20100;-79
2023/10/02 02:53:40;;;;;;;14.48;5.65;;;;;;;;;;5002593;28;20037;-79
2023/10/02 02:56:18;;;;;;;13.77;5.07;;;;;;;;;;5002463;28;20400;-79
2023/10/02 02:58:51;;;;;;;13.15;4.80;;;;;;;;;;5001872;28;20046;-79
2023/10/02 03:01:23;;;;;;;14.35;5.10;;;;;;;;;;5003003;28;20891;-79
2023/10/02 03:03:49;;;;;;;15.65;6.00;;;;;;;;;;5002934;28;20061;-79
2023/10/02 03:06:22;;;;;;;16.70;6.13;;;;;;;;;;5002303;28;20046;-79
2023/10/02 03:08:52;;;;;;;14.65;6.13;;;;;;;;;;5003061;28;20056;-79
2023/10/02 03:11:22;;;;;;;17.67;5.97;;;;;;;;;;5003743;28;20626;-79
2023/10/02 03:13:48;;;;;;;15.48;5.72;;;;;;;;;;5002896;28;20440;-78
2023/10/02 03:16:28;;;;;;;16.13;5.78;;;;;;;;;;5001472;28;20551;-79
2023/10/02 03:18:54;;;;;;;16.23;5.75;;;;;;;;;;5003379;28;20046;-79
2023/10/02 03:21:24;;;;;;;17.27;5.85;;;;;;;;;;5000796;28;20491;-79
2023/10/02 03:23:54;;;;;;;14.85;5.72;;;;;;;;;;5003407;28;20522;-79
2023/10/02 03:29:11;;;;;;;16.45;5.53;;;;;;;;;;5003257;28;20169;-79
2023/10/02 03:31:43;;;;;;;12.80;4.93;;;;;;;;;;5001097;28;20061;-79
2023/10/02 03:34:28;;;;;;;14.52;4.95;;;;;;;;;;4996831;28;20054;-79
2023/10/02 03:37:08;;;;;;;12.73;4.55;;;;;;;;;;5002991;28;20053;-79
2023/10/02 03:42:25;;;;;;;10.32;4.32;;;;;;;;;;5002666;28;20045;-79
2023/10/02 03:44:54;;;;;;;15.30;6.03;;;;;;;;;;5003358;28;20038;-79
2023/10/02 03:47:21;;;;;;;16.40;6.22;;;;;;;;;;4994182;28;20042;-79
2023/10/02 03:49:47;;;;;;;15.73;5.07;;;;;;;;;;5005142;28;20084;-79
2023/10/02 03:52:14;;;;;;;19.17;6.18;;;;;;;;;;5007947;28;20400;-79
2023/10/02 03:54:46;;;;;;;15.75;5.68;;;;;;;;;;5010167;28;20042;-79
2023/10/02 03:57:37;;;;;;;17.08;5.57;;;;;;;;;;5020099;28;20096;-79
2023/10/02 04:00:18;;;;;;;15.20;5.35;;;;;;;;;;5019778;28;20042;-79
2023/10/02 04:02:46;;;;;;;13.77;5.50;;;;;;;;;;5009214;28;20068;-79
2023/10/02 04:05:34;;;;;;;13.57;5.22;;;;;;;;;;5007621;28;20077;-79
2023/10/02 04:10:55;;;;;;;16.30;6.25;;;;;;;;;;5006320;28;20048;-79
2023/10/02 04:13:32;;;;;;;15.32;5.70;;;;;;;;;;5006487;28;20037;-79
2023/10/02 04:18:59;;;;;;;13.70;5.07;;;;;;;;;;5006489;28;20053;-79
2023/10/02 04:21:25;;;;;;;15.45;5.25;;;;;;;;;;5005564;28;20042;-79
2023/10/02 04:23:54;;;;;;;12.13;5.15;;;;;;;;;;5006341;28;20037;-79
2023/10/02 04:26:22;;;;;;;12.18;5.25;;;;;;;;;;4994492;28;20137;-79
2023/10/02 04:28:56;;;;;;;19.95;5.28;;;;;;;;;;5003984;28;20523;-79
2023/10/02 04:31:34;;;;;;;15.88;5.55;;;;;;;;;;5004732;28;20042;-79
2023/10/02 04:37:19;;;;;;;15.98;5.38;;;;;;;;;;5014986;28;20049;-79
2023/10/02 04:42:57;;;;;;;13.68;5.45;;;;;;;;;;5004846;28;20053;-79
2023/10/02 04:45:25;;;;;;;15.43;5.40;;;;;;;;;;4999272;28;20368;-79
2023/10/02 04:47:55;;;;;;;16.90;5.50;;;;;;;;;;5004145;28;20053;-79
2023/10/02 04:55:24;;;;;;;16.73;6.10;;;;;;;;;;5005532;28;20145;-79
2023/10/02 04:57:52;;;;;;;18.48;5.97;;;;;;;;;;5003222;28;20069;-79
2023/10/02 05:00:28;;;;;;;19.75;6.43;;;;;;;;;;5002803;28;20044;-79
2023/10/02 05:03:09;;;;;;;19.65;6.25;;;;;;;;;;5004707;28;20042;-79
2023/10/02 05:05:47;;;;;;;17.30;6.15;;;;;;;;;;5005088;28;20470;-79
2023/10/02 05:08:21;;;;;;;18.42;6.40;;;;;;;;;;4998412;28;20033;-79
2023/10/02 05:10:49;;;;;;;17.08;5.78;;;;;;;;;;5003901;28;20529;-78
2023/10/02 05:13:44;;;;;;;19.17;6.57;;;;;;;;;;4996025;28;20057;-78
2023/10/02 05:16:12;;;;;;;19.38;6.65;;;;;;;;;;4997352;28;20821;-78
2023/10/02 05:18:47;;;;;;;17.00;6.05;;;;;;;;;;5007778;28;20041;-77
2023/10/02 05:21:16;;;;;;;24.75;6.75;;;;;;;;;;4996319;28;20038;-78
2023/10/02 05:23:43;;;;;;;21.83;7.15;;;;;;;;;;5008332;28;20026;-78
2023/10/02 05:26:29;;;;;;;20.75;7.20;;;;;;;;;;4998920;28;20030;-79
2023/10/02 05:28:55;;;;;;;19.90;6.45;;;;;;;;;;5004910;28;20049;-79
2023/10/02 05:31:21;;;;;;;17.17;6.75;;;;;;;;;;5004623;28;20041;-78
2023/10/02 05:33:48;;;;;;;18.17;5.75;;;;;;;;;;5002088;28;20065;-78
2023/10/02 05:36:19;;;;;;;19.00;6.80;;;;;;;;;;5003480;28;20045;-78
2023/10/02 05:39:27;;;;;;;17.13;6.88;;;;;;;;;;5004333;28;20029;-78
2023/10/02 05:41:41;;;;;;;18.92;6.10;;;;;;;;;;5003328;28;20042;-78
2023/10/02 05:44:13;;;;;;;17.77;6.25;;;;;;;;;;5004583;28;20120;-78
2023/10/02 05:46:55;;;;;;;23.73;5.85;;;;;;;;;;5003851;28;20037;-78
2023/10/02 05:49:24;;;;;;;16.27;6.50;;;;;;;;;;5003906;28;20575;-78
2023/10/02 05:51:55;;;;;;;22.75;6.63;;;;;;;;;;5004110;28;20072;-78
2023/10/02 05:54:26;;;;;;;15.85;5.38;;;;;;;;;;5002670;28;20543;-78
2023/10/02 05:57:08;;;;;;;19.50;6.78;;;;;;;;;;5004008;28;20030;-78
2023/10/02 05:59:44;;;;;;;20.60;6.38;;;;;;;;;;5004127;28;20025;-78
2023/10/02 06:02:22;;;;;;;17.92;6.57;;;;;;;;;;4998846;28;20108;-78
2023/10/02 06:04:52;;;;;;;18.60;6.28;;;;;;;;;;5003381;28;20037;-78
2023/10/02 06:07:43;;;;;;;17.10;5.75;;;;;;;;;;5019193;28;20709;-78
2023/10/02 06:10:25;;;;;;;23.42;6.55;;;;;;;;;;5016889;28;20153;-78
2023/10/02 06:13:02;;;;;;;20.58;6.13;;;;;;;;;;5011181;28;20045;-78
2023/10/02 06:15:43;;;;;;;21.10;5.55;;;;;;;;;;5003856;28;20575;-78
2023/10/02 06:18:08;;;;;;;19.98;6.60;;;;;;;;;;4995463;28;20045;-78
2023/10/02 06:20:34;;;;;;;19.83;6.78;;;;;;;;;;5003646;28;20499;-78
2023/10/02 06:23:19;;;;;;;17.50;5.90;;;;;;;;;;5002181;28;20045;-78
2023/10/02 06:25:46;;;;;;;18.35;6.35;;;;;;;;;;5002415;28;20038;-78
2023/10/02 06:28:25;;;;;;;22.30;6.50;;;;;;;;;;5003351;28;20700;-78
2023/10/02 06:30:51;;;;;;;14.63;5.90;;;;;;;;;;5002165;28;20060;-78
2023/10/02 06:33:21;;;;;;;16.00;5.88;;;;;;;;;;5001258;28;20038;-78
2023/10/02 06:35:56;;;;;;;15.20;5.55;;;;;;;;;;5003271;28;20084;-78
2023/10/02 06:38:22;;;;;;;18.10;6.05;;;;;;;;;;5004393;28;20022;-78
2023/10/02 06:40:57;;;;;;;18.02;6.72;;;;;;;;;;5002588;28;20397;-78
2023/10/02 06:43:30;;;;;;;24.75;7.05;;;;;;;;;;5003878;28;20081;-78
2023/10/02 06:46:06;;;;;;;;;;;;;;;;;;5014696;28;20034;-78
2023/10/02 06:48:35;;;;;;;19.05;6.85;;;;;;;;;;5020536;28;19917;-78
2023/10/02 06:51:02;;;;;;;19.90;6.65;;;;;;;;;;5011868;28;20042;-78
2023/10/02 06:53:28;;;;;;;18.85;6.45;;;;;;;;;;5002919;28;20025;-78
2023/10/02 06:55:58;;;;;;;25.23;7.38;;;;;;;;;;5004232;28;20029;-78
2023/10/02 06:58:25;;;;;;;21.17;7.30;;;;;;;;;;5003555;28;20058;-78
2023/10/02 07:01:01;;;;;;;23.80;7.05;;;;;;;;;;5001310;28;20503;-78
2023/10/02 07:03:27;;;;;;;22.27;7.30;;;;;;;;;;5002119;28;20042;-78
2023/10/02 07:05:53;;;;;;;22.23;7.07;;;;;;;;;;5001926;28;20048;-78
2023/10/02 07:08:21;;;;;;;23.98;7.57;;;;;;;;;;5001408;28;20037;-77
2023/10/02 07:10:47;;;;;;;22.65;7.28;;;;;;;;;;5003158;28;20183;-78
2023/10/02 07:13:23;;;;;;;20.20;6.88;;;;;;;;;;5002404;28;20664;-78
2023/10/02 07:15:55;;;;;;;25.30;7.57;;;;;;;;;;4988718;28;20069;-77
2023/10/02 07:18:21;;;;;;;22.43;7.03;;;;;;;;;;5001414;28;20516;-77
2023/10/02 07:20:53;;;;;;;23.27;7.93;;;;;;;;;;5002613;28;20467;-78
2023/10/02 07:23:22;;;;;;;19.45;7.20;;;;;;;;;;5004226;28;20033;-78
2023/10/02 07:25:51;;;;;;;21.33;7.60;;;;;;;;;;5005413;28;20123;-78
2023/10/02 07:28:23;;;;;;;18.30;7.45;;;;;;;;;;5006217;28;20481;-77
2023/10/02 07:30:52;;;;;;;23.63;7.25;;;;;;;;;;5002699;28;20066;-77
2023/10/02 07:33:20;;;;;;;21.88;7.60;;;;;;;;;;5012959;28;20047;-78
2023/10/02 07:35:53;;;;;;;27.10;7.55;;;;;;;;;;5022549;28;20061;-76
2023/10/02 07:38:29;;;;;;;;;;;;;;;;;;4998737;28;20786;-76
2023/10/02 07:41:06;;;;;;;23.15;7.40;;;;;;;;;;4999030;28;19996;-77
2023/10/02 07:43:31;;;;;;;22.67;6.57;;;;;;;;;;4999360;28;20175;-76
2023/10/02 07:46:02;;;;;;;21.27;6.88;;;;;;;;;;5002472;28;20137;-76
2023/10/02 07:48:35;;;;;;;21.10;6.57;;;;;;;;;;5004213;28;20037;-76
2023/10/02 07:51:01;;;;;;;21.93;6.40;;;;;;;;;;5004995;28;20053;-76
2023/10/02 07:53:39;;;;;;;20.50;7.03;;;;;;;;;;4976382;28;20030;-77
2023/10/02 07:56:11;;;;;;;19.70;7.10;;;;;;;;;;4986913;28;20034;-76
2023/10/02 07:58:54;;;;;;;19.30;6.32;;;;;;;;;;4998605;28;20045;-76
2023/10/02 08:01:21;;;;;;;19.80;7.03;;;;;;;;;;4986375;28;20068;-77
2023/10/02 08:03:49;;;;;;;20.95;7.13;;;;;;;;;;4996834;28;20041;-77
2023/10/02 08:06:21;;;;;;;24.67;7.10;;;;;;;;;;4990040;28;20531;-77
2023/10/02 08:11:52;;;;;;;21.42;6.97;;;;;;;;;;5028137;28;20125;-77
2023/10/02 08:14:42;;;;;;;26.25;8.15;;;;;;;;;;5044410;28;20118;-77
2023/10/02 08:17:18;;;;;;;25.55;7.30;;;;;;;;;;5012838;28;20044;-77
2023/10/02 08:19:54;;;;;;;23.98;7.45;;;;;;;;;;4990679;28;20042;-77
2023/10/02 08:22:23;;;;;;;17.70;7.32;;;;;;;;;;5003168;28;20124;-77
2023/10/02 08:24:55;;;;;;;19.95;6.30;;;;;;;;;;5011246;28;20514;-77
2023/10/02 08:27:21;;;;;;;24.13;7.15;;;;;;;;;;4994143;28;20728;-77
2023/10/02 08:29:46;;;;;;;18.13;6.07;;;;;;;;;;5007675;28;20443;-77
2023/10/02 08:32:12;;;;;;;22.77;7.63;;;;;;;;;;5013313;28;20866;-77
2023/10/02 08:34:37;;;;;;;19.85;6.57;;;;;;;;;;5002993;28;20037;-77
2023/10/02 08:37:07;;;;;;;18.98;6.68;;;;;;;;;;4993250;28;20820;-77
2023/10/02 08:39:39;;;;;;;20.88;6.72;;;;;;;;;;5010065;28;20030;-78
2023/10/02 08:42:11;;;;;;;22.67;7.32;;;;;;;;;;5008860;28;20041;-77
2023/10/02 08:44:38;;;;;;;23.75;7.18;;;;;;;;;;5014223;28;20422;-76
2023/10/02 08:47:08;;;;;;;27.35;6.88;;;;;;;;;;5016629;28;20029;-77
2023/10/02 08:49:35;;;;;;;24.33;7.68;;;;;;;;;;5017384;28;20034;-77
2023/10/02 08:52:03;;;;;;;19.38;7.20;;;;;;;;;;5011101;28;20064;-77
2023/10/02 08:54:31;;;;;;;19.23;7.20;;;;;;;;;;5017242;28;20038;-77
2023/10/02 08:57:12;;;;;;;23.10;7.65;;;;;;;;;;5011535;28;20069;-77
2023/10/02 08:59:38;;;;;;;25.05;7.68;;;;;;;;;;5016630;28;20037;-76
2023/10/02 09:02:14;;;;;;;18.85;7.05;;;;;;;;;;5014984;28;20025;-77
2023/10/02 09:05:09;;;;;;;19.45;7.10;;;;;;;;;;5016056;28;20034;-77
2023/10/02 09:08:07;;;;;;;19.63;7.50;;;;;;;;;;5017545;28;20136;-77
2023/10/02 09:10:26;;;;;;;26.33;8.18;;;;;;;;;;5018810;28;20069;-76
2023/10/02 09:13:14;;;;;;;22.10;8.13;;;;;;;;;;5023762;28;20183;-77
2023/10/02 09:15:44;;;;;;;21.70;8.00;;;;;;;;;;5023365;28;20108;-77
2023/10/02 09:18:22;;;;;;;20.08;7.57;;;;;;;;;;5023392;28;20038;-78
2023/10/02 09:21:04;;;;;;;23.15;8.52;;;;;;;;;;5021694;28;20219;-77
2023/10/02 09:23:30;;;;;;;25.55;7.78;;;;;;;;;;5023951;28;20048;-77
2023/10/02 09:26:18;;;;;;;21.60;8.05;;;;;;;;;;5024174;28;20155;-77
2023/10/02 09:28:58;;;;;;;20.05;7.72;;;;;;;;;;5024654;28;20649;-76
2023/10/02 09:31:27;;;;;;;22.08;7.93;;;;;;;;;;5024905;28;20076;-76
2023/10/02 09:33:52;;;;;;;25.35;8.15;;;;;;;;;;5027795;28;20087;-77
2023/10/02 09:36:34;;;;;;;24.33;7.55;;;;;;;;;;5036454;28;20296;-78
2023/10/02 09:39:31;;;;;;;21.77;8.13;;;;;;;;;;5041648;28;20533;-77
2023/10/02 09:41:49;;;;;;;26.92;8.13;;;;;;;;;;5025775;28;20053;-76
2023/10/02 09:44:21;;;;;;;18.92;7.13;;;;;;;;;;5021399;28;20030;-77
2023/10/02 09:46:51;;;;;;;21.67;7.27;;;;;;;;;;5012636;28;20060;-78
2023/10/02 09:49:30;;;;;;;16.77;6.63;;;;;;;;;;5022899;28;20522;-77
2023/10/02 09:52:15;;;;;;;21.50;7.43;;;;;;;;;;5022880;28;20061;-77
2023/10/02 09:55:07;;;;;;;20.27;7.22;;;;;;;;;;5021413;28;20037;-80
2023/10/02 09:57:50;;;;;;;23.95;7.90;;;;;;;;;;5016607;28;20044;-77
2023/10/02 10:00:36;;;;;;;;;;;;;;;;;;5022110;28;20044;-77
2023/10/02 10:03:23;;;;;;;21.05;7.72;;;;;;;;;;5021389;28;19917;-75
2023/10/02 10:06:16;;;;;;;20.50;7.75;;;;;;;;;;5015456;28;20075;-76
2023/10/02 10:14:42;;;;;;;19.98;7.60;;;;;;;;;;5019616;28;20142;-75
2023/10/02 10:17:49;;;;;;;20.60;7.72;;;;;;;;;;5021736;28;20514;-75
2023/10/02 10:20:19;;;;;;;22.50;8.20;;;;;;;;;;5015553;28;20049;-76
2023/10/02 10:22:55;;;;;;;21.90;8.27;;;;;;;;;;5022249;28;20127;-75
2023/10/02 10:27:54;;;;;;;24.02;8.00;;;;;;;;;;5023039;28;20060;-76
2023/10/02 10:30:24;;;;;;;23.38;8.00;;;;;;;;;;5019741;28;20522;-76
2023/10/02 10:35:34;;;;;;;20.20;7.57;;;;;;;;;;5021814;28;20096;-76
2023/10/02 10:38:04;;;;;;;20.58;8.38;;;;;;;;;;5021516;28;20550;-76
2023/10/02 10:40:44;;;;;;;19.65;7.97;;;;;;;;;;5021943;28;20936;-76
2023/10/02 10:43:13;;;;;;;24.33;7.90;;;;;;;;;;5015781;28;20564;-75
2023/10/02 10:45:40;;;;;;;23.90;8.45;;;;;;;;;;5022571;28;20041;-76
2023/10/02 10:48:18;;;;;;;20.45;7.75;;;;;;;;;;5020852;28;20064;-76
2023/10/02 10:50:57;;;;;;;23.60;8.75;;;;;;;;;;5022271;28;20057;-75
2023/10/02 10:53:26;;;;;;;21.30;7.82;;;;;;;;;;5020805;28;20024;-75
2023/10/02 10:56:23;;;;;;;28.88;8.00;;;;;;;;;;5023191;28;20053;-76
2023/10/02 10:59:02;;;;;;;23.45;8.10;;;;;;;;;;5025801;28;20149;-76
2023/10/02 11:01:27;;;;;;;24.27;7.28;;;;;;;;;;5034210;28;20045;-75
2023/10/02 11:04:01;;;;;;;20.58;7.30;;;;;;;;;;5034286;28;20049;-76
2023/10/02 11:06:28;;;;;;;22.52;8.02;;;;;;;;;;5020860;28;20528;-76
2023/10/02 11:09:16;;;;;;;21.27;7.95;;;;;;;;;;5020097;28;20043;-76
2023/10/02 11:11:50;;;;;;;26.02;7.80;;;;;;;;;;5022209;28;20025;-75
2023/10/02 11:14:27;;;;;;;23.83;9.13;;;;;;;;;;5022047;28;20025;-76
2023/10/02 11:16:54;;;;;;;24.90;8.68;;;;;;;;;;5020608;28;20076;-75
2023/10/02 11:22:14;;;;;;;20.83;7.22;;;;;;;;;;5020619;28;20073;-76
2023/10/02 11:24:46;;;;;;;22.38;8.55;;;;;;;;;;5020735;28;20593;-75
2023/10/02 11:27:15;;;;;;;21.77;8.13;;;;;;;;;;5021693;28;20041;-76
2023/10/02 11:29:41;;;;;;;24.27;7.47;;;;;;;;;;5021648;28;20037;-75
2023/10/02 11:32:21;;;;;;;21.58;8.18;;;;;;;;;;5021613;28;20037;-75
2023/10/02 11:34:51;;;;;;;21.17;7.93;;;;;;;;;;5021381;28;20259;-75
2023/10/02 11:37:18;;;;;;;23.42;8.35;;;;;;;;;;5021211;28;20045;-75
2023/10/02 11:39:45;;;;;;;22.58;7.90;;;;;;;;;;5019328;28;20048;-75
2023/10/02 11:42:11;;;;;;;24.98;8.45;;;;;;;;;;5021481;28;20071;-76
2023/10/02 11:44:39;;;;;;;25.33;8.00;;;;;;;;;;5017373;28;20495;-76
2023/10/02 11:47:09;;;;;;;23.92;8.40;;;;;;;;;;5013462;28;20514;-75
2023/10/02 11:49:35;;;;;;;21.42;8.10;;;;;;;;;;5021373;28;20037;-76
2023/10/02 11:52:02;;;;;;;21.17;8.10;;;;;;;;;;5020972;28;20077;-76
2023/10/02 11:54:27;;;;;;;22.75;8.02;;;;;;;;;;5019982;28;20124;-76
2023/10/02 11:56:53;;;;;;;23.40;7.97;;;;;;;;;;5021596;28;20136;-76
2023/10/02 11:59:19;;;;;;;25.73;8.35;;;;;;;;;;5022489;28;20650;-76
2023/10/02 12:01:47;;;;;;;22.30;7.75;;;;;;;;;;5020966;28;20077;-76
2023/10/02 12:04:14;;;;;;;21.70;8.30;;;;;;;;;;5021943;28;20620;-75
2023/10/02 12:06:40;;;;;;;22.70;8.30;;;;;;;;;;5019471;28;20064;-75
2023/10/02 12:09:06;;;;;;;20.75;7.72;;;;;;;;;;5021924;28;20566;-75
2023/10/02 12:11:34;;;;;;;23.33;8.23;;;;;;;;;;5025214;28;20558;-75
2023/10/02 12:14:02;;;;;;;23.48;8.43;;;;;;;;;;5024653;28;20419;-76
2023/10/02 12:16:28;;;;;;;23.42;7.85;;;;;;;;;;5024408;28;20124;-76
2023/10/02 12:18:53;;;;;;;26.15;8.68;;;;;;;;;;5022487;28;20109;-76
2023/10/02 12:21:21;;;;;;;23.17;8.90;;;;;;;;;;5021920;28;20049;-75
2023/10/02 12:23:47;;;;;;;26.75;8.48;;;;;;;;;;5027791;28;20033;-75
2023/10/02 12:26:14;;;;;;;23.73;8.25;;;;;;;;;;5038549;28;20541;-76
2023/10/02 12:28:41;;;;;;;22.63;8.23;;;;;;;;;;5043098;28;20060;-75
2023/10/02 12:31:08;;;;;;;23.08;7.50;;;;;;;;;;5028994;28;20045;-76
2023/10/02 12:33:35;;;;;;;22.63;8.52;;;;;;;;;;5026228;28;20033;-76
2023/10/02 12:36:01;;;;;;;24.15;9.30;;;;;;;;;;5023804;28;20029;-75
2023/10/02 12:38:26;;;;;;;25.30;8.23;;;;;;;;;;5023769;28;20029;-76
2023/10/02 12:40:51;;;;;;;23.67;9.05;;;;;;;;;;5018507;28;20032;-76
2023/10/02 12:43:17;;;;;;;22.15;7.95;;;;;;;;;;5018304;28;20064;-75
2023/10/02 12:45:43;;;;;;;21.13;8.60;;;;;;;;;;5011773;28;20046;-76
2023/10/02 12:48:09;;;;;;;23.83;8.02;;;;;;;;;;5007506;28;20040;-75
2023/10/02 12:50:41;;;;;;;19.88;7.80;;;;;;;;;;5021236;28;20064;-76
2023/10/02 12:53:08;;;;;;;23.27;8.10;;;;;;;;;;5016804;28;20090;-76
2023/10/02 12:55:36;;;;;;;23.20;8.50;;;;;;;;;;5022662;28;20040;-75
2023/10/02 12:58:04;;;;;;;23.50;7.25;;;;;;;;;;5022539;28;20053;-76
2023/10/02 13:00:33;;;;;;;23.17;8.27;;;;;;;;;;5023353;28;20038;-76
2023/10/02 13:02:59;;;;;;;23.67;8.35;;;;;;;;;;5022435;28;20041;-76
2023/10/02 13:05:25;;;;;;;28.80;10.40;;;;;;;;;;5024873;28;20029;-76
2023/10/02 13:07:55;;;;;;;25.60;9.10;;;;;;;;;;5022174;28;20041;-75
2023/10/02 13:10:24;;;;;;;32.45;11.45;;;;;;;;;;5023662;28;20135;-75
2023/10/02 13:12:50;;;;;;;36.85;12.30;;;;;;;;;;5023914;28;20195;-76
2023/10/02 13:15:16;;;;;;;36.17;13.15;;;;;;;;;;5022483;28;20763;-75
2023/10/02 13:17:42;;;;;;;38.08;12.48;;;;;;;;;;5023475;28;20033;-75
2023/10/02 13:20:09;;;;;;;37.03;13.32;;;;;;;;;;5024615;28;20462;-75
2023/10/02 13:22:37;;;;;;;41.08;12.90;;;;;;;;;;5022709;28;20034;-75
2023/10/02 13:25:04;;;;;;;43.10;14.30;;;;;;;;;;5014499;28;20037;-76
2023/10/02 13:27:31;;;;;;;40.90;14.07;;;;;;;;;;5023863;28;20057;-76
2023/10/02 13:29:57;;;;;;;45.88;15.57;;;;;;;;;;5021324;28;20423;-76
2023/10/02 13:32:23;;;;;;;44.72;14.88;;;;;;;;;;5021943;28;20040;-76
2023/10/02 13:34:50;;;;;;;41.65;14.95;;;;;;;;;;5022993;28;20041;-76
2023/10/02 13:37:15;;;;;;;39.35;13.23;;;;;;;;;;5022413;28;20037;-76
2023/10/02 13:39:40;;;;;;;47.10;15.35;;;;;;;;;;5023299;28;20030;-75
2023/10/02 13:42:06;;;;;;;44.97;14.18;;;;;;;;;;5023354;28;20041;-76
2023/10/02 13:44:31;;;;;;;38.40;12.23;;;;;;;;;;5023779;28;20029;-76
2023/10/02 13:46:57;;;;;;;33.00;11.63;;;;;;;;;;5022464;28;20022;-76
2023/10/02 13:49:23;;;;;;;35.53;11.65;;;;;;;;;;5030164;28;20068;-75
2023/10/02 13:51:48;;;;;;;33.10;10.98;;;;;;;;;;5036597;28;20042;-76
2023/10/02 13:54:14;;;;;;;33.58;11.88;;;;;;;;;;5030843;28;20535;-75
2023/10/02 13:56:40;;;;;;;33.22;10.38;;;;;;;;;;5014798;28;20060;-79
2023/10/02 13:59:06;;;;;;;30.70;10.65;;;;;;;;;;5012043;28;20045;-79
2023/10/02 14:01:32;;;;;;;29.88;9.68;;;;;;;;;;5016188;28;20041;-79
2023/10/02 14:03:58;;;;;;;28.38;10.25;;;;;;;;;;5022095;28;20037;-79
2023/10/02 14:06:25;;;;;;;26.50;9.68;;;;;;;;;;5023515;28;20030;-79
2023/10/02 14:08:52;;;;;;;29.08;10.05;;;;;;;;;;5023200;28;20930;-78
2023/10/02 14:11:19;;;;;;;25.70;8.77;;;;;;;;;;5023420;28;20025;-78
2023/10/02 14:13:48;;;;;;;21.17;9.10;;;;;;;;;;5023058;28;20056;-78
2023/10/02 14:16:19;;;;;;;26.23;9.63;;;;;;;;;;5021138;28;20042;-78
2023/10/02 14:18:56;;;;;;;25.27;9.10;;;;;;;;;;5022692;28;20037;-78
2023/10/02 14:21:23;;;;;;;25.60;9.55;;;;;;;;;;5020686;28;20708;-79
2023/10/02 14:23:52;;;;;;;27.23;9.82;;;;;;;;;;5020938;28;20061;-78
2023/10/02 14:26:19;;;;;;;28.08;9.52;;;;;;;;;;5023341;28;20029;-78
2023/10/02 14:28:46;;;;;;;28.88;10.10;;;;;;;;;;5022128;28;20041;-78
2023/10/02 14:31:11;;;;;;;29.02;10.13;;;;;;;;;;5019234;28;20071;-78
2023/10/02 14:33:40;;;;;;;26.05;9.90;;;;;;;;;;5010781;28;20423;-76
2023/10/02 14:36:07;;;;;;;23.27;9.43;;;;;;;;;;5015538;28;20044;-77
2023/10/02 14:38:34;;;;;;;29.77;10.30;;;;;;;;;;5020821;28;20624;-78
2023/10/02 14:41:00;;;;;;;23.20;9.38;;;;;;;;;;5023161;28;20029;-78
2023/10/02 14:43:27;;;;;;;26.83;10.43;;;;;;;;;;5020530;28;20056;-78
2023/10/02 14:45:53;;;;;;;31.08;10.05;;;;;;;;;;5021233;28;20132;-78
2023/10/02 14:48:20;;;;;;;28.75;10.95;;;;;;;;;;5022765;28;20037;-78
2023/10/02 14:50:46;;;;;;;30.63;10.05;;;;;;;;;;5022240;28;20025;-78
2023/10/02 14:53:12;;;;;;;31.08;11.05;;;;;;;;;;5021759;28;20499;-78
2023/10/02 14:55:39;;;;;;;29.30;9.95;;;;;;;;;;5021484;28;20099;-78
2023/10/02 14:58:07;;;;;;;28.67;9.38;;;;;;;;;;5018998;28;20049;-78
2023/10/02 15:00:34;;;;;;;31.42;10.80;;;;;;;;;;5010691;28;20053;-78
2023/10/02 15:03:01;;;;;;;31.05;10.13;;;;;;;;;;5022067;28;20513;-78
2023/10/02 15:05:27;;;;;;;32.95;11.27;;;;;;;;;;5023514;28;20040;-78
2023/10/02 15:07:53;;;;;;;28.55;10.23;;;;;;;;;;5022678;28;21235;-78
2023/10/02 15:10:23;;;;;;;31.80;10.15;;;;;;;;;;5021608;28;20038;-78
2023/10/02 15:12:52;;;;;;;32.08;10.10;;;;;;;;;;5025534;28;20055;-78
2023/10/02 15:15:24;;;;;;;32.55;12.23;;;;;;;;;;5030987;28;20427;-78
2023/10/02 15:17:53;;;;;;;29.55;10.68;;;;;;;;;;5037138;28;20324;-78
2023/10/02 15:20:23;;;;;;;30.85;11.65;;;;;;;;;;5031003;28;20021;-78
2023/10/02 15:22:50;;;;;;;30.92;10.65;;;;;;;;;;5023094;28;20895;-79
2023/10/02 15:25:16;;;;;;;28.98;10.95;;;;;;;;;;5014473;28;20542;-78
2023/10/02 15:27:49;;;;;;;29.83;10.93;;;;;;;;;;5020840;28;20095;-77
2023/10/02 15:30:16;;;;;;;29.40;11.05;;;;;;;;;;5018504;28;20475;-77
2023/10/02 15:32:50;;;;;;;28.73;10.45;;;;;;;;;;5020196;28;20913;-78
2023/10/02 15:35:18;;;;;;;30.52;10.82;;;;;;;;;;5018615;28;20095;-77